Resolved ASXP Hurricane Dorian

Status
Not open for further replies.

cdawg9999

New member
Currently running ASXP 7180 Live weather. Why does ASXP still show Hurricane Dorian over southwestern Nova Scotia Canada?
 

maxam

Beta Team Member
It appears that some stations are showing METAR data from the 7th which is probably causing the issue:

CWWE 071800Z VRB85KT 0966 FG +RA BKN030CB OVC250 20/20 Q0969 RMK FORCED BY: RADIUS-DYNAMIC STATION FOR HURRICANE DORIAN

I will see what I can do to get this resolved. Thank you for the report.
 

maxam

Beta Team Member
Is this 7180 the newest Beta for P3d and xplane or is 7045 the newest?
Hello,

For X-Plane 11 7045 is the latest official and 7180 is the open beta. For Prepar3D v4 7070 is the latest official and 7180 is the open beta.
 

damian

Developer
Staff member
Hello,

It appears this storm data set has become "stuck" and we're investigating and working on resolution. Thank you.
 
Status
Not open for further replies.
Top